createdAt,value
2023-05-10T00:00:15.223Z,12.20
2023-05-10T00:04:28.469Z,12.40
2023-05-10T00:08:40.046Z,13.30
2023-05-10T00:12:51.635Z,13.05
2023-05-10T00:17:03.198Z,13.85
2023-05-10T00:21:14.729Z,13.48
2023-05-10T00:25:26.305Z,16.67
2023-05-10T00:29:37.824Z,17.33
2023-05-10T00:33:49.312Z,17.58
2023-05-10T00:38:00.909Z,19.00
2023-05-10T00:42:12.466Z,17.65
2023-05-10T00:46:24.433Z,17.95
2023-05-10T00:50:36.176Z,18.15
2023-05-10T00:54:48.632Z,19.67
2023-05-10T00:59:00.753Z,18.75
2023-05-10T01:03:12.539Z,19.95
2023-05-10T01:07:24.313Z,20.23
2023-05-10T01:11:37.591Z,19.38
2023-05-10T01:15:49.227Z,19.58
2023-05-10T01:20:00.957Z,18.15
2023-05-10T01:24:51.201Z,19.75
2023-05-10T01:29:27.517Z,18.63
2023-05-10T01:33:59.957Z,18.23
2023-05-10T01:38:47.829Z,19.45
2023-05-10T01:43:03.630Z,18.73
2023-05-10T01:47:31.775Z,18.60
2023-05-10T01:51:55.698Z,19.17
2023-05-10T01:56:09.462Z,20.02
2023-05-10T02:00:21.306Z,19.10
2023-05-10T02:04:39.581Z,21.85
2023-05-10T02:08:53.044Z,28.58
2023-05-10T02:13:08.272Z,18.52
2023-05-10T02:17:20.456Z,18.13
2023-05-10T02:21:33.686Z,16.77
2023-05-10T02:25:46.462Z,17.50
2023-05-10T02:29:59.835Z,18.05
2023-05-10T02:34:12.554Z,18.50
2023-05-10T02:38:25.372Z,18.88
2023-05-10T02:42:38.734Z,18.27
2023-05-10T02:46:50.672Z,19.25
2023-05-10T02:51:08.011Z,20.27
2023-05-10T02:55:26.336Z,19.40
2023-05-10T02:59:38.074Z,20.05
2023-05-10T03:03:49.722Z,20.38
2023-05-10T03:08:04.628Z,19.83
2023-05-10T03:13:02.696Z,21.25
2023-05-10T03:17:27.205Z,20.35
2023-05-10T03:21:43.094Z,20.73
2023-05-10T03:25:55.458Z,21.17
2023-05-10T03:30:14.252Z,19.38
2023-05-10T03:34:27.040Z,20.92
2023-05-10T03:38:38.782Z,23.10
2023-05-10T03:42:50.877Z,21.35
2023-05-10T03:47:02.510Z,22.00
2023-05-10T03:51:14.390Z,22.80
2023-05-10T03:55:26.047Z,22.05
2023-05-10T03:59:37.630Z,20.35
2023-05-10T04:03:49.367Z,20.23
2023-05-10T04:08:01.094Z,18.60
2023-05-10T04:12:12.804Z,19.45
2023-05-10T04:16:24.356Z,17.60
2023-05-10T04:20:35.899Z,18.63
2023-05-10T04:24:47.451Z,17.92
2023-05-10T04:28:58.998Z,18.02
2023-05-10T04:33:10.609Z,19.63
2023-05-10T04:37:23.815Z,18.92
2023-05-10T04:41:35.577Z,19.67
2023-05-10T04:45:47.292Z,19.40
2023-05-10T04:49:59.415Z,18.25
2023-05-10T04:54:11.300Z,19.58
2023-05-10T04:58:22.889Z,17.92
2023-05-10T05:02:34.526Z,18.33
2023-05-10T05:06:46.075Z,18.52
2023-05-10T05:10:57.674Z,19.50
2023-05-10T05:15:10.673Z,18.67
2023-05-10T05:19:22.449Z,17.70
2023-05-10T05:23:34.005Z,17.98
2023-05-10T05:27:45.576Z,16.17
2023-05-10T05:31:57.072Z,17.52
2023-05-10T05:36:09.430Z,17.70
2023-05-10T05:40:21.484Z,17.67
2023-05-10T05:44:33.103Z,17.33
2023-05-10T05:48:44.691Z,17.52
2023-05-10T05:52:56.288Z,17.48
2023-05-10T05:57:08.503Z,17.90
2023-05-10T06:01:20.189Z,17.90
2023-05-10T06:05:31.796Z,17.65
2023-05-10T06:09:43.327Z,19.52
2023-05-10T06:13:54.922Z,18.38
2023-05-10T06:18:07.000Z,18.30
2023-05-10T06:22:18.762Z,19.05
2023-05-10T06:26:30.476Z,18.50
2023-05-10T06:30:42.032Z,18.88
2023-05-10T06:34:53.689Z,19.00
2023-05-10T06:39:05.444Z,18.23
2023-05-10T06:43:17.337Z,17.92
2023-05-10T06:47:28.974Z,18.02
2023-05-10T06:51:41.245Z,18.17
2023-05-10T06:55:58.996Z,19.25
2023-05-10T07:00:11.292Z,19.33
2023-05-10T07:04:22.970Z,19.70
2023-05-10T07:08:35.454Z,17.48
2023-05-10T07:12:47.157Z,18.77
2023-05-10T07:16:58.965Z,19.60
2023-05-10T07:21:10.735Z,19.52
2023-05-10T07:25:22.451Z,19.52
2023-05-10T07:29:34.102Z,19.88
2023-05-10T07:33:45.693Z,20.52
2023-05-10T07:37:57.474Z,19.00
2023-05-10T07:42:09.378Z,17.83
2023-05-10T07:46:21.277Z,17.05
2023-05-10T07:50:33.161Z,16.95
2023-05-10T07:54:45.646Z,19.02
2023-05-10T07:58:57.538Z,16.58
2023-05-10T08:03:09.447Z,17.25
2023-05-10T08:07:21.151Z,18.13
2023-05-10T08:11:34.303Z,16.88
2023-05-10T08:15:47.287Z,18.08
2023-05-10T08:19:58.976Z,17.15
2023-05-10T08:24:10.656Z,15.98
2023-05-10T08:28:22.229Z,15.82
2023-05-10T08:32:33.889Z,16.23
2023-05-10T08:36:45.566Z,12.95
2023-05-10T08:40:58.042Z,12.50
2023-05-10T08:45:11.412Z,12.07
2023-05-10T08:49:25.022Z,11.70
2023-05-10T08:53:40.366Z,11.32
2023-05-10T08:57:52.264Z,9.82
2023-05-10T09:02:05.804Z,10.23
2023-05-10T09:06:17.974Z,8.30
2023-05-10T09:10:31.230Z,6.85
2023-05-10T09:14:45.362Z,6.18
2023-05-10T09:18:57.233Z,5.78
2023-05-10T09:23:09.315Z,5.50
2023-05-10T09:27:27.961Z,5.47
2023-05-10T09:31:47.802Z,6.05
2023-05-10T09:36:08.353Z,5.28
2023-05-10T09:40:22.006Z,5.30
2023-05-10T09:44:35.183Z,5.35
2023-05-10T09:48:48.156Z,5.22
2023-05-10T09:53:02.021Z,4.75
2023-05-10T09:57:22.843Z,4.82
2023-05-10T10:01:35.934Z,5.07
2023-05-10T10:05:49.456Z,4.82
2023-05-10T10:10:01.563Z,5.15
2023-05-10T10:14:13.665Z,5.32
2023-05-10T10:18:28.228Z,5.78
2023-05-10T10:22:40.027Z,6.13
2023-05-10T10:26:56.783Z,5.80
2023-05-10T10:31:33.472Z,5.88
2023-05-10T10:35:46.889Z,5.90
2023-05-10T10:39:58.539Z,5.90
2023-05-10T10:44:31.878Z,5.43
2023-05-10T10:49:08.970Z,5.88
2023-05-10T10:53:21.230Z,6.55
2023-05-10T10:58:01.051Z,5.97
2023-05-10T11:02:46.786Z,5.60
2023-05-10T11:07:18.229Z,6.38
2023-05-10T11:11:29.889Z,5.97
2023-05-10T11:15:52.845Z,5.22
2023-05-10T11:20:10.610Z,5.53
2023-05-10T11:24:23.921Z,4.95
2023-05-10T11:28:35.713Z,5.38
2023-05-10T11:32:47.582Z,4.72
2023-05-10T11:36:59.454Z,4.70
2023-05-10T11:41:14.072Z,4.95
2023-05-10T11:45:27.045Z,4.65
2023-05-10T11:49:38.645Z,4.20
2023-05-10T11:53:52.302Z,5.10
2023-05-10T11:58:03.974Z,4.55
2023-05-10T12:02:16.099Z,5.07
2023-05-10T12:06:33.226Z,4.60
2023-05-10T12:10:44.981Z,4.90
2023-05-10T12:14:56.641Z,4.38
2023-05-10T12:19:08.559Z,4.47
2023-05-10T12:23:20.906Z,3.83
2023-05-10T12:27:33.381Z,3.78
2023-05-10T12:31:58.716Z,3.40
2023-05-10T12:36:16.161Z,3.83
2023-05-10T12:40:27.758Z,3.90
2023-05-10T12:44:40.208Z,3.85
2023-05-10T12:49:07.501Z,3.67
2023-05-10T12:53:20.825Z,3.88
2023-05-10T12:57:32.426Z,2.92
2023-05-10T13:01:44.066Z,2.95
2023-05-10T13:05:55.840Z,3.45
2023-05-10T13:10:07.906Z,3.40
2023-05-10T13:14:21.344Z,3.33
2023-05-10T13:18:32.951Z,3.85
2023-05-10T13:22:45.537Z,3.45
2023-05-10T13:26:57.147Z,3.33
2023-05-10T13:31:09.198Z,3.25
2023-05-10T13:35:21.072Z,2.97
2023-05-10T13:39:35.384Z,4.63
2023-05-10T13:43:47.112Z,5.00
2023-05-10T13:47:58.921Z,4.68
2023-05-10T13:52:11.127Z,5.85
2023-05-10T13:56:22.829Z,5.45
2023-05-10T14:00:34.734Z,5.07
2023-05-10T14:04:46.977Z,5.07
2023-05-10T14:08:58.675Z,4.90
2023-05-10T14:13:10.380Z,5.00
2023-05-10T14:17:23.273Z,5.13
2023-05-10T14:21:35.117Z,4.47
2023-05-10T14:25:46.845Z,4.88
2023-05-10T14:29:58.544Z,4.47
2023-05-10T14:34:10.339Z,3.90
2023-05-10T14:38:22.002Z,3.10
2023-05-10T14:42:33.697Z,3.08
2023-05-10T14:47:12.131Z,2.85
2023-05-10T14:51:24.054Z,2.90
2023-05-10T14:55:36.133Z,3.03
2023-05-10T14:59:47.744Z,3.03
2023-05-10T15:04:02.000Z,2.33
2023-05-10T15:08:14.165Z,2.28
2023-05-10T15:12:26.759Z,1.60
2023-05-10T15:16:38.515Z,1.98
2023-05-10T15:20:50.275Z,2.28
2023-05-10T15:25:02.529Z,1.50
2023-05-10T15:29:20.587Z,1.30
2023-05-10T15:33:32.200Z,1.70
2023-05-10T15:37:43.852Z,1.23
2023-05-10T15:41:55.455Z,1.58
2023-05-10T15:46:07.295Z,1.48
2023-05-10T15:50:19.247Z,1.50
2023-05-10T15:54:30.853Z,1.42
2023-05-10T15:58:43.961Z,1.30
2023-05-10T16:02:55.624Z,1.40
2023-05-10T16:07:07.262Z,1.98
2023-05-10T16:11:18.888Z,1.30
2023-05-10T16:15:30.538Z,1.02
2023-05-10T16:19:42.095Z,1.20
2023-05-10T16:23:53.945Z,1.00
2023-05-10T16:28:07.848Z,1.23
2023-05-10T16:32:19.571Z,1.33
2023-05-10T16:36:31.661Z,1.40
2023-05-10T16:40:43.486Z,1.88
2023-05-10T16:44:55.309Z,1.63
2023-05-10T16:49:07.088Z,1.70
2023-05-10T16:53:18.901Z,1.55
2023-05-10T16:57:31.122Z,1.38
2023-05-10T17:01:42.948Z,1.10
2023-05-10T17:05:54.688Z,1.13
2023-05-10T17:10:06.940Z,1.33
2023-05-10T17:14:18.592Z,1.75
2023-05-10T17:18:30.502Z,1.83
2023-05-10T17:22:42.137Z,2.28
2023-05-10T17:26:53.793Z,2.08
2023-05-10T17:31:05.403Z,1.80
2023-05-10T17:35:17.420Z,1.83
2023-05-10T17:39:29.247Z,2.20
2023-05-10T17:43:40.872Z,2.38
2023-05-10T17:47:52.491Z,2.10
2023-05-10T17:52:04.316Z,1.85
2023-05-10T17:56:16.097Z,2.15
2023-05-10T18:00:27.897Z,2.20
2023-05-10T18:04:40.837Z,2.13
2023-05-10T18:08:52.551Z,2.78
2023-05-10T18:13:07.360Z,2.90
2023-05-10T18:17:20.369Z,3.42
2023-05-10T18:21:32.756Z,2.92
2023-05-10T18:25:44.375Z,3.28
2023-05-10T18:29:55.992Z,3.50
2023-05-10T18:34:07.740Z,3.45
2023-05-10T18:38:19.555Z,3.20
2023-05-10T18:42:31.149Z,3.38
2023-05-10T18:46:42.972Z,3.85
2023-05-10T18:50:54.659Z,3.95
2023-05-10T18:55:07.114Z,4.22
2023-05-10T18:59:18.818Z,4.43
2023-05-10T19:03:30.583Z,4.35
2023-05-10T19:07:43.894Z,4.30
2023-05-10T19:11:55.982Z,4.43
2023-05-10T19:16:13.001Z,4.70
2023-05-10T19:20:25.123Z,4.45
2023-05-10T19:24:37.057Z,4.65
2023-05-10T19:28:51.462Z,4.80
2023-05-10T19:33:04.862Z,4.30
2023-05-10T19:37:16.596Z,4.70
2023-05-10T19:41:28.614Z,4.60
2023-05-10T19:45:40.371Z,4.63
2023-05-10T19:49:52.072Z,4.70
2023-05-10T19:54:03.888Z,4.30
2023-05-10T19:58:15.570Z,5.03
2023-05-10T20:02:27.253Z,5.18
2023-05-10T20:06:39.026Z,4.80
2023-05-10T20:10:50.768Z,4.18
2023-05-10T20:15:03.692Z,4.88
2023-05-10T20:19:15.784Z,5.78
2023-05-10T20:23:27.666Z,5.50
2023-05-10T20:27:39.479Z,5.07
2023-05-10T20:31:51.203Z,4.75
2023-05-10T20:36:02.893Z,4.40
2023-05-10T20:40:14.535Z,4.72
2023-05-10T20:44:26.634Z,4.50
2023-05-10T20:48:38.261Z,5.47
2023-05-10T20:52:52.722Z,5.38
2023-05-10T20:57:04.349Z,4.70
2023-05-10T21:01:16.079Z,5.90
2023-05-10T21:05:28.060Z,5.60
2023-05-10T21:09:39.741Z,5.97
2023-05-10T21:13:51.597Z,6.32
2023-05-10T21:18:03.463Z,5.78
2023-05-10T21:22:15.279Z,6.40
2023-05-10T21:26:26.957Z,6.53
2023-05-10T21:30:38.624Z,7.22
2023-05-10T21:34:50.278Z,7.43
2023-05-10T21:39:01.886Z,6.80
2023-05-10T21:43:13.610Z,6.60
2023-05-10T21:47:25.240Z,6.60
2023-05-10T21:51:36.947Z,6.43
2023-05-10T21:55:48.551Z,7.28
2023-05-10T22:00:00.157Z,7.82
2023-05-10T22:04:11.792Z,7.43
2023-05-10T22:08:23.491Z,7.70
2023-05-10T22:12:35.284Z,8.43
2023-05-10T22:16:46.902Z,8.32
2023-05-10T22:20:58.510Z,8.30
2023-05-10T22:25:10.438Z,8.05
2023-05-10T22:29:22.768Z,8.10
2023-05-10T22:33:34.432Z,7.35
2023-05-10T22:37:46.414Z,9.18
2023-05-10T22:41:58.057Z,8.52
2023-05-10T22:46:09.734Z,8.40
2023-05-10T22:50:21.627Z,8.10
2023-05-10T22:54:34.880Z,8.00
2023-05-10T22:58:48.463Z,8.18
2023-05-10T23:03:00.673Z,8.25
2023-05-10T23:07:12.291Z,8.30
2023-05-10T23:11:23.918Z,8.35
2023-05-10T23:15:36.309Z,8.48
2023-05-10T23:19:47.954Z,8.30
2023-05-10T23:23:59.660Z,9.15
2023-05-10T23:28:11.411Z,8.73
2023-05-10T23:32:23.404Z,8.70
2023-05-10T23:36:35.081Z,8.55
2023-05-10T23:40:50.611Z,8.85
2023-05-10T23:45:02.890Z,8.70
2023-05-10T23:49:14.578Z,8.35
2023-05-10T23:53:26.445Z,9.35
2023-05-10T23:57:38.093Z,9.35
